Time;durP1;ratioP1;P1;durP2;ratioP2;P2;SDS_P1;SDS_P2;PMS_P1;PMS_P2;Temp;Humidity;BMP_temperature;BMP_pressure;BME280_temperature;BME280_humidity;BME280_pressure;Samples;Min_cycle;Max_cycle;Signal;HPM_P1;HPM_P2
2023/07/02 00:01:32;;;;;;;7.13;4.70;;;19.80;99.90;;;;;;5051666;28;20288;-76
2023/07/02 00:03:57;;;;;;;6.40;4.70;;;19.80;99.90;;;;;;5018315;28;20231;-76
2023/07/02 00:06:23;;;;;;;9.30;5.00;;;19.80;99.90;;;;;;5052422;28;20576;-76
2023/07/02 00:08:49;;;;;;;4.43;3.60;;;19.80;99.90;;;;;;5018406;28;20208;-76
2023/07/02 00:11:16;;;;;;;4.93;2.70;;;19.80;99.90;;;;;;5051499;28;20213;-76
2023/07/02 00:13:41;;;;;;;6.17;2.97;;;19.80;99.90;;;;;;5052605;28;20192;-75
2023/07/02 00:16:07;;;;;;;4.00;2.50;;;19.80;99.90;;;;;;5034607;28;20587;-76
2023/07/02 00:18:35;;;;;;;4.00;2.57;;;19.80;99.90;;;;;;5034587;28;20303;-76
2023/07/02 00:21:04;;;;;;;5.53;2.57;;;19.80;99.90;;;;;;5033819;28;20184;-76
2023/07/02 00:23:30;;;;;;;4.80;2.40;;;19.80;99.90;;;;;;5034111;28;20615;-76
2023/07/02 00:25:57;;;;;;;4.33;2.13;;;19.80;99.90;;;;;;5018042;28;20575;-76
2023/07/02 00:28:23;;;;;;;4.70;2.50;;;19.80;99.90;;;;;;5051612;28;20208;-75
2023/07/02 00:30:50;;;;;;;3.60;1.93;;;19.80;99.90;;;;;;5051862;28;20728;-75
2023/07/02 00:33:16;;;;;;;5.00;2.70;;;19.80;99.90;;;;;;5051897;28;20668;-75
2023/07/02 00:35:42;;;;;;;4.07;2.47;;;19.80;99.90;;;;;;5034264;28;20704;-76
2023/07/02 00:38:07;;;;;;;5.33;2.40;;;19.80;99.90;;;;;;5052141;28;20721;-76
2023/07/02 00:40:37;;;;;;;5.97;2.23;;;19.80;99.90;;;;;;5033906;28;20215;-75
2023/07/02 00:43:02;;;;;;;4.60;2.33;;;19.80;99.90;;;;;;5033697;28;20688;-75
2023/07/02 00:45:28;;;;;;;5.60;2.33;;;19.70;99.90;;;;;;5018218;28;21499;-75
2023/07/02 00:47:55;;;;;;;3.80;2.60;;;19.70;99.90;;;;;;5033943;28;20181;-76
2023/07/02 00:50:22;;;;;;;3.30;2.17;;;19.70;99.90;;;;;;5051839;28;20619;-76
2023/07/02 00:52:49;;;;;;;3.67;2.40;;;19.70;99.90;;;;;;5017080;28;20603;-76
2023/07/02 00:55:15;;;;;;;5.93;2.47;;;19.70;99.90;;;;;;5033826;28;20578;-75
2023/07/02 00:57:46;;;;;;;4.90;2.87;;;19.60;99.90;;;;;;5034055;28;20641;-76
2023/07/02 01:00:13;;;;;;;6.23;3.87;;;19.60;99.90;;;;;;5017386;28;20579;-76
2023/07/02 01:02:43;;;;;;;6.50;3.93;;;19.60;99.90;;;;;;5015830;28;20748;-76
2023/07/02 01:05:14;;;;;;;9.30;6.67;;;19.60;99.90;;;;;;5000094;28;20571;-75
2023/07/02 01:07:41;;;;;;;6.93;4.13;;;19.50;99.90;;;;;;5033596;28;20575;-76
2023/07/02 01:10:07;;;;;;;12.20;3.53;;;19.50;99.90;;;;;;5016726;28;20629;-76
2023/07/02 01:12:34;;;;;;;4.80;2.63;;;19.50;99.90;;;;;;5032671;28;20188;-76
2023/07/02 01:15:02;;;;;;;5.40;2.77;;;19.50;99.90;;;;;;5026887;28;20596;-75
2023/07/02 01:17:39;;;;;;;3.77;2.97;;;19.50;99.90;;;;;;5033825;28;20958;-76
2023/07/02 01:20:10;;;;;;;9.67;5.80;;;19.40;99.90;;;;;;5000354;28;20575;-76
2023/07/02 01:22:38;;;;;;;14.20;9.17;;;19.40;99.90;;;;;;5032504;28;20587;-76
2023/07/02 01:25:05;;;;;;;10.57;7.67;;;19.40;99.90;;;;;;5033405;28;20931;-76
2023/07/02 01:27:32;;;;;;;12.40;6.90;;;19.40;99.90;;;;;;5016845;28;20563;-76
2023/07/02 01:29:57;;;;;;;7.40;5.13;;;19.40;99.90;;;;;;5016933;28;20618;-76
2023/07/02 01:32:23;;;;;;;7.80;4.70;;;19.40;99.90;;;;;;5015677;28;20659;-75
2023/07/02 01:34:53;;;;;;;6.50;4.50;;;19.40;99.90;;;;;;5016560;28;20254;-76
2023/07/02 01:37:19;;;;;;;5.90;3.87;;;19.40;99.90;;;;;;5016734;28;21131;-76
2023/07/02 01:39:45;;;;;;;6.67;4.90;;;19.40;99.90;;;;;;5016797;28;20582;-76
2023/07/02 01:42:15;;;;;;;7.80;4.47;;;19.40;99.90;;;;;;5032224;28;20977;-76
2023/07/02 01:44:41;;;;;;;9.37;4.90;;;19.40;99.90;;;;;;5051388;28;20602;-76
2023/07/02 01:47:07;;;;;;;8.00;5.10;;;19.40;99.90;;;;;;5032653;28;20656;-75
2023/07/02 01:49:33;;;;;;;9.73;5.80;;;19.40;99.90;;;;;;5016367;28;20619;-75
2023/07/02 01:51:59;;;;;;;8.70;5.00;;;19.30;99.90;;;;;;5015575;28;20240;-76
2023/07/02 01:54:27;;;;;;;10.47;5.40;;;19.30;99.90;;;;;;5016868;28;20615;-76
2023/07/02 01:56:54;;;;;;;7.10;4.93;;;19.30;99.90;;;;;;4999885;28;20611;-76
2023/07/02 01:59:20;;;;;;;9.00;5.07;;;19.30;99.90;;;;;;5016253;28;20587;-76
2023/07/02 02:01:46;;;;;;;10.97;5.80;;;19.30;99.90;;;;;;5015457;28;20658;-75
2023/07/02 02:04:12;;;;;;;12.20;5.97;;;19.30;99.90;;;;;;5032682;28;20662;-76
2023/07/02 02:06:39;;;;;;;10.70;6.27;;;19.20;99.90;;;;;;5033320;28;20172;-76
2023/07/02 02:09:06;;;;;;;6.83;5.57;;;19.20;99.90;;;;;;5016428;28;20595;-76
2023/07/02 02:11:33;;;;;;;10.70;6.07;;;19.20;99.90;;;;;;5015910;28;20635;-75
2023/07/02 02:14:02;;;;;;;11.13;6.40;;;19.20;99.90;;;;;;5000354;28;21178;-76
2023/07/02 02:16:28;;;;;;;9.67;6.10;;;19.20;99.90;;;;;;5033020;28;20670;-76
2023/07/02 02:18:55;;;;;;;12.97;6.67;;;19.20;99.90;;;;;;5016306;28;20584;-76
2023/07/02 02:21:21;;;;;;;8.73;5.70;;;19.20;99.90;;;;;;5015879;28;20595;-75
2023/07/02 02:23:48;;;;;;;8.83;6.70;;;19.20;99.90;;;;;;5016107;28;20665;-76
2023/07/02 02:26:14;;;;;;;9.60;6.77;;;19.20;99.90;;;;;;5016375;28;20587;-76
2023/07/02 02:28:44;;;;;;;14.00;6.90;;;19.20;99.90;;;;;;5016129;28;20680;-75
2023/07/02 02:31:09;;;;;;;12.77;7.83;;;19.20;99.90;;;;;;4998321;28;21237;-75
2023/07/02 02:33:36;;;;;;;12.47;8.00;;;19.10;99.90;;;;;;5015827;28;20603;-76
2023/07/02 02:36:03;;;;;;;11.03;7.17;;;19.10;99.90;;;;;;5015500;28;20678;-76
2023/07/02 02:38:30;;;;;;;14.10;8.03;;;19.10;99.90;;;;;;5016061;28;20619;-76
2023/07/02 02:40:55;;;;;;;14.13;8.00;;;19.10;99.90;;;;;;5014952;28;21143;-76
2023/07/02 02:43:22;;;;;;;10.93;7.50;;;19.10;99.90;;;;;;5031830;28;20196;-76
2023/07/02 02:45:49;;;;;;;10.37;7.53;;;19.10;99.90;;;;;;5015246;28;20181;-76
2023/07/02 02:48:15;;;;;;;12.50;7.47;;;19.10;99.90;;;;;;5032080;28;21349;-76
2023/07/02 02:50:42;;;;;;;9.07;7.63;;;19.10;99.90;;;;;;5014913;28;20231;-76
2023/07/02 02:53:10;;;;;;;12.00;7.20;;;19.10;99.90;;;;;;5035941;28;20595;-76
2023/07/02 02:55:36;;;;;;;13.80;7.63;;;19.00;99.90;;;;;;5035602;28;20664;-76
2023/07/02 02:58:02;;;;;;;12.60;7.80;;;19.00;99.90;;;;;;5036096;28;20590;-77
2023/07/02 03:00:28;;;;;;;11.07;7.97;;;19.00;99.90;;;;;;5036084;28;20939;-76
2023/07/02 03:02:53;;;;;;;12.90;8.13;;;19.00;99.90;;;;;;5035225;28;20639;-77
2023/07/02 03:05:20;;;;;;;12.20;8.07;;;19.00;99.90;;;;;;5036302;28;20256;-77
2023/07/02 03:07:46;;;;;;;9.70;7.80;;;18.90;99.90;;;;;;5019149;28;20607;-76
2023/07/02 03:10:11;;;;;;;13.23;9.00;;;18.90;99.90;;;;;;5019365;28;20672;-77
2023/07/02 03:12:37;;;;;;;14.17;9.70;;;18.90;99.90;;;;;;5034822;28;20169;-76
2023/07/02 03:15:03;;;;;;;14.87;10.37;;;18.90;99.90;;;;;;5019327;28;20176;-76
2023/07/02 03:17:29;;;;;;;10.90;8.00;;;18.90;99.90;;;;;;5035558;28;20177;-76
2023/07/02 03:19:55;;;;;;;16.07;9.73;;;18.90;99.90;;;;;;5019408;28;20596;-76
2023/07/02 03:22:20;;;;;;;15.70;9.40;;;18.80;99.90;;;;;;5034482;28;20263;-76
2023/07/02 03:24:46;;;;;;;10.93;9.07;;;18.80;99.90;;;;;;5029272;28;20176;-76
2023/07/02 03:27:11;;;;;;;9.67;7.80;;;18.80;99.90;;;;;;5022900;28;20195;-77
2023/07/02 03:29:38;;;;;;;13.83;9.40;;;18.80;99.90;;;;;;5035162;28;20173;-76
2023/07/02 03:32:04;;;;;;;16.53;9.20;;;18.70;99.90;;;;;;5034861;28;20635;-76
2023/07/02 03:34:30;;;;;;;20.30;9.97;;;18.70;99.90;;;;;;5053069;28;20603;-76
2023/07/02 03:36:56;;;;;;;12.97;9.57;;;18.70;99.90;;;;;;5035622;28;20601;-76
2023/07/02 03:39:22;;;;;;;20.77;9.50;;;18.70;99.90;;;;;;5035259;28;20621;-76
2023/07/02 03:41:47;;;;;;;14.33;9.00;;;18.60;99.90;;;;;;5034762;28;20594;-76
2023/07/02 03:44:13;;;;;;;17.97;10.30;;;18.60;99.90;;;;;;5035119;28;21154;-76
2023/07/02 03:46:39;;;;;;;17.50;9.97;;;18.60;99.90;;;;;;5035247;28;20173;-76
2023/07/02 03:49:05;;;;;;;14.33;9.47;;;18.60;99.90;;;;;;5035224;28;20583;-76
2023/07/02 03:51:31;;;;;;;15.70;10.60;;;18.60;99.90;;;;;;5052213;28;20288;-76
2023/07/02 03:54:00;;;;;;;16.27;10.77;;;18.60;99.90;;;;;;5034761;28;20195;-76
2023/07/02 03:56:26;;;;;;;16.50;11.07;;;18.60;99.90;;;;;;5052995;28;20571;-76
2023/07/02 03:58:53;;;;;;;17.93;9.87;;;18.70;99.90;;;;;;5052808;28;20556;-76
2023/07/02 04:01:18;;;;;;;15.27;9.90;;;18.70;99.90;;;;;;5033848;28;20192;-76
2023/07/02 04:03:49;;;;;;;18.97;11.30;;;18.70;99.90;;;;;;5034100;28;21243;-76
2023/07/02 04:06:15;;;;;;;15.80;9.77;;;18.70;99.90;;;;;;5018229;28;20280;-76
2023/07/02 04:08:41;;;;;;;18.27;11.40;;;18.80;99.90;;;;;;5018559;28;20583;-77
2023/07/02 04:11:07;;;;;;;16.53;10.27;;;18.80;99.90;;;;;;5033939;28;20650;-76
2023/07/02 04:13:33;;;;;;;15.07;10.70;;;18.80;99.90;;;;;;5034543;28;21146;-76
2023/07/02 04:15:58;;;;;;;16.63;11.30;;;18.80;99.90;;;;;;5034474;28;20666;-76
2023/07/02 04:18:24;;;;;;;15.07;11.33;;;18.90;99.90;;;;;;5052747;28;20629;-77
2023/07/02 04:20:50;;;;;;;17.20;10.93;;;18.90;99.90;;;;;;5033937;28;20185;-75
2023/07/02 04:23:16;;;;;;;16.67;11.77;;;19.00;99.90;;;;;;5017915;28;20208;-76
2023/07/02 04:25:42;;;;;;;14.60;10.30;;;19.00;99.90;;;;;;5052535;28;20256;-76
2023/07/02 04:28:07;;;;;;;18.20;11.83;;;19.00;99.90;;;;;;5018734;28;21060;-76
2023/07/02 04:30:34;;;;;;;16.07;11.10;;;19.10;99.90;;;;;;5034187;28;20307;-76
2023/07/02 04:33:00;;;;;;;15.80;10.90;;;19.10;99.90;;;;;;5052034;28;20591;-76
2023/07/02 04:35:26;;;;;;;15.00;11.00;;;19.10;99.90;;;;;;5052489;28;20571;-76
2023/07/02 04:37:52;;;;;;;16.50;11.37;;;19.10;99.90;;;;;;5034294;28;20585;-76
2023/07/02 04:40:18;;;;;;;16.80;11.63;;;19.10;99.90;;;;;;5052351;28;20637;-76
2023/07/02 04:42:46;;;;;;;16.37;12.00;;;19.20;99.90;;;;;;5033259;28;20619;-76
2023/07/02 04:45:15;;;;;;;15.97;11.60;;;19.20;99.90;;;;;;5034293;28;20818;-76
2023/07/02 04:47:42;;;;;;;17.23;12.73;;;19.20;99.90;;;;;;5034039;28;20954;-76
2023/07/02 04:50:08;;;;;;;17.67;12.47;;;19.30;99.90;;;;;;5034303;28;20616;-76
2023/07/02 04:52:34;;;;;;;17.90;13.07;;;19.30;99.90;;;;;;5033029;28;20658;-75
2023/07/02 04:54:59;;;;;;;16.53;12.87;;;19.40;99.90;;;;;;5052157;28;20564;-75
2023/07/02 04:57:25;;;;;;;18.40;12.30;;;19.40;99.90;;;;;;5033607;28;20179;-76
2023/07/02 04:59:51;;;;;;;16.67;12.40;;;19.40;99.90;;;;;;5033842;28;20830;-76
2023/07/02 05:02:16;;;;;;;20.57;12.60;;;19.50;99.90;;;;;;5051012;28;20648;-76
2023/07/02 05:04:42;;;;;;;17.97;12.33;;;19.50;99.90;;;;;;5033663;28;20561;-76
2023/07/02 05:07:08;;;;;;;17.70;12.07;;;19.50;99.90;;;;;;5033948;28;20276;-76
2023/07/02 05:09:33;;;;;;;19.43;12.70;;;19.60;99.90;;;;;;5033248;28;20219;-76
2023/07/02 05:11:59;;;;;;;22.87;13.33;;;19.60;99.90;;;;;;5050343;28;20654;-76
2023/07/02 05:14:25;;;;;;;19.87;14.23;;;19.70;99.90;;;;;;5032987;28;20748;-76
2023/07/02 05:16:51;;;;;;;24.93;15.43;;;19.70;99.90;;;;;;5051575;28;20196;-76
2023/07/02 05:19:16;;;;;;;18.43;11.83;;;19.70;99.90;;;;;;5033358;28;20171;-76
2023/07/02 05:21:42;;;;;;;19.53;13.67;;;19.70;99.90;;;;;;5051264;28;20169;-76
2023/07/02 05:24:08;;;;;;;18.73;13.20;;;19.80;99.90;;;;;;5051606;28;20563;-76
2023/07/02 05:26:34;;;;;;;18.00;13.30;;;19.80;99.90;;;;;;5033469;28;20181;-76
2023/07/02 05:29:01;;;;;;;21.17;14.10;;;19.80;99.90;;;;;;5051877;28;20579;-76
2023/07/02 05:31:26;;;;;;;19.27;14.07;;;19.80;99.90;;;;;;5050477;28;20628;-76
2023/07/02 05:33:56;;;;;;;21.37;15.07;;;19.90;99.90;;;;;;5051209;28;20694;-76
2023/07/02 05:36:21;;;;;;;19.07;13.17;;;19.90;99.90;;;;;;5051105;28;20169;-77
2023/07/02 05:38:47;;;;;;;22.27;14.70;;;20.00;99.90;;;;;;5033474;28;20573;-76
2023/07/02 05:41:20;;;;;;;20.20;12.93;;;20.10;99.90;;;;;;5050152;28;20173;-76
2023/07/02 05:43:46;;;;;;;21.43;14.50;;;20.10;99.90;;;;;;5033277;28;20326;-77
2023/07/02 05:46:13;;;;;;;25.10;14.77;;;20.20;99.90;;;;;;5016255;28;20575;-77
2023/07/02 05:48:40;;;;;;;20.90;14.90;;;20.30;99.90;;;;;;5051240;28;20641;-76
2023/07/02 05:51:07;;;;;;;17.80;13.60;;;20.40;99.90;;;;;;4999280;28;20627;-77
2023/07/02 05:53:32;;;;;;;21.40;14.57;;;20.60;99.90;;;;;;5032892;28;20615;-76
2023/07/02 05:55:58;;;;;;;18.10;13.80;;;20.70;99.90;;;;;;5032625;28;20578;-76
2023/07/02 05:58:24;;;;;;;20.17;14.67;;;20.90;99.90;;;;;;5050991;28;20832;-76
2023/07/02 06:00:50;;;;;;;20.50;15.10;;;21.10;99.90;;;;;;5050751;28;20189;-76
2023/07/02 06:03:21;;;;;;;18.53;14.13;;;21.30;99.90;;;;;;5050574;28;20665;-76
2023/07/02 06:05:51;;;;;;;20.73;15.07;;;21.60;99.90;;;;;;5033623;28;20231;-76
2023/07/02 06:08:17;;;;;;;20.37;14.10;;;22.00;99.90;;;;;;5033560;28;20576;-77
2023/07/02 06:10:46;;;;;;;22.23;15.67;;;22.20;99.90;;;;;;5017449;28;20615;-76
2023/07/02 06:13:12;;;;;;;17.60;14.50;;;22.50;99.90;;;;;;5032094;28;20697;-77
2023/07/02 06:15:38;;;;;;;17.73;13.80;;;22.70;99.90;;;;;;5032840;28;21367;-77
2023/07/02 06:18:04;;;;;;;19.10;13.43;;;22.80;99.90;;;;;;5050791;28;20622;-76
2023/07/02 06:20:30;;;;;;;20.87;14.57;;;22.90;99.90;;;;;;5017517;28;20638;-77
2023/07/02 06:22:55;;;;;;;17.90;14.60;;;23.10;99.90;;;;;;5032294;28;20189;-77
2023/07/02 06:25:21;;;;;;;15.57;13.17;;;23.20;99.90;;;;;;5053601;28;20165;-76
2023/07/02 06:27:47;;;;;;;27.77;17.37;;;23.20;99.90;;;;;;5051128;28;20195;-76
2023/07/02 06:30:13;;;;;;;22.03;14.47;;;23.20;99.90;;;;;;5033572;28;20165;-76
2023/07/02 06:32:39;;;;;;;18.53;15.20;;;23.20;99.90;;;;;;5031652;28;20596;-76
2023/07/02 06:35:06;;;;;;;18.77;12.57;;;23.20;99.90;;;;;;5032131;28;20175;-76
2023/07/02 06:37:32;;;;;;;18.50;13.23;;;23.20;99.90;;;;;;5049792;28;20947;-76
2023/07/02 06:39:58;;;;;;;23.90;15.03;;;23.20;99.90;;;;;;5031777;28;20642;-77
2023/07/02 06:42:25;;;;;;;21.23;12.93;;;23.30;99.90;;;;;;5015109;28;20576;-77
2023/07/02 06:44:51;;;;;;;17.63;13.13;;;23.50;99.90;;;;;;5049864;28;20583;-77
2023/07/02 06:47:16;;;;;;;25.03;12.50;;;23.60;99.90;;;;;;5050173;28;21181;-77
2023/07/02 06:49:42;;;;;;;21.37;13.93;;;23.70;99.90;;;;;;5031974;28;20583;-77
2023/07/02 06:52:08;;;;;;;20.63;12.93;;;23.70;99.90;;;;;;5049053;28;20193;-77
2023/07/02 06:54:34;;;;;;;16.83;12.60;;;23.70;99.90;;;;;;5049764;28;20608;-77
2023/07/02 06:57:00;;;;;;;19.10;15.00;;;23.70;99.90;;;;;;5050066;28;20164;-77
2023/07/02 06:59:26;;;;;;;15.47;12.60;;;23.70;99.90;;;;;;5031840;28;20263;-77
2023/07/02 07:01:52;;;;;;;19.00;13.50;;;23.70;99.90;;;;;;5014673;28;20726;-77
2023/07/02 07:04:18;;;;;;;18.90;14.37;;;23.70;99.90;;;;;;5032269;28;20900;-76
2023/07/02 07:06:44;;;;;;;18.77;14.10;;;23.70;99.90;;;;;;5049769;28;20187;-77
2023/07/02 07:09:10;;;;;;;18.87;13.50;;;23.70;99.90;;;;;;5032306;28;20623;-76
2023/07/02 07:11:36;;;;;;;16.20;12.87;;;23.80;99.90;;;;;;5030685;28;20655;-77
2023/07/02 07:14:02;;;;;;;16.37;13.07;;;23.90;99.90;;;;;;5032154;28;20738;-77
2023/07/02 07:16:28;;;;;;;20.30;14.40;;;23.80;99.90;;;;;;5031711;28;20227;-77
2023/07/02 07:18:54;;;;;;;20.47;13.60;;;23.80;99.90;;;;;;5049921;28;20653;-76
2023/07/02 07:21:19;;;;;;;20.00;13.90;;;23.70;99.90;;;;;;5030246;28;20180;-77
2023/07/02 07:23:45;;;;;;;21.50;14.60;;;23.70;99.90;;;;;;5049713;28;20205;-76
2023/07/02 07:26:11;;;;;;;19.13;13.77;;;23.80;99.90;;;;;;5030808;28;20599;-76
2023/07/02 07:28:37;;;;;;;20.30;13.30;;;23.80;99.90;;;;;;5031912;28;20542;-77
2023/07/02 07:31:02;;;;;;;22.10;13.10;;;23.90;99.90;;;;;;5031170;28;20204;-77
2023/07/02 07:33:28;;;;;;;19.70;12.63;;;23.80;99.90;;;;;;5031889;28;20188;-77
2023/07/02 07:35:54;;;;;;;18.70;12.60;;;23.90;99.90;;;;;;5015102;28;20248;-77
2023/07/02 07:38:20;;;;;;;16.57;12.90;;;23.80;99.90;;;;;;5032181;28;20580;-77
2023/07/02 07:40:46;;;;;;;22.20;12.50;;;23.80;99.90;;;;;;5018426;28;20576;-77
2023/07/02 07:43:12;;;;;;;20.23;13.23;;;23.70;99.90;;;;;;5034717;28;20200;-77
2023/07/02 07:45:38;;;;;;;16.30;11.93;;;23.80;99.90;;;;;;5035376;28;20185;-77
2023/07/02 07:48:07;;;;;;;16.77;11.67;;;23.90;99.90;;;;;;5035243;28;20583;-76
2023/07/02 07:50:33;;;;;;;19.40;11.57;;;24.10;99.90;;;;;;5035076;28;20722;-77
2023/07/02 07:53:05;;;;;;;17.10;11.90;;;24.30;99.90;;;;;;5034444;28;20630;-77
2023/07/02 07:55:34;;;;;;;17.40;11.47;;;24.50;99.90;;;;;;5018293;28;20582;-75
2023/07/02 07:58:00;;;;;;;17.53;11.60;;;24.90;99.90;;;;;;5033905;28;20574;-77
2023/07/02 08:00:26;;;;;;;17.10;10.77;;;25.20;99.90;;;;;;5053495;28;20298;-77
2023/07/02 08:02:55;;;;;;;15.97;11.77;;;25.70;99.90;;;;;;5017168;28;20734;-75
2023/07/02 08:05:21;;;;;;;18.50;11.20;;;26.40;99.90;;;;;;5052367;28;20173;-74
2023/07/02 08:07:46;;;;;;;16.80;11.07;;;26.80;99.90;;;;;;5052462;28;20563;-74
2023/07/02 08:10:12;;;;;;;14.77;10.80;;;27.30;99.90;;;;;;5034345;28;20587;-75
2023/07/02 08:12:38;;;;;;;21.97;10.97;;;27.40;99.90;;;;;;5017331;28;20741;-74
2023/07/02 08:15:04;;;;;;;18.07;10.43;;;27.60;99.90;;;;;;5034555;28;20258;-74
2023/07/02 08:17:34;;;;;;;15.53;11.03;;;27.80;99.90;;;;;;5018250;28;20177;-74
2023/07/02 08:19:59;;;;;;;16.43;10.03;;;28.10;99.90;;;;;;5034467;28;20638;-74
2023/07/02 08:22:25;;;;;;;16.63;11.50;;;28.50;99.90;;;;;;5034665;28;20607;-78
2023/07/02 08:24:51;;;;;;;15.27;11.70;;;28.80;99.90;;;;;;5053264;28;20180;-76
2023/07/02 08:27:19;;;;;;;14.63;10.20;;;29.00;99.90;;;;;;5054851;28;20519;-74
2023/07/02 08:29:48;;;;;;;13.83;10.70;;;29.00;99.90;;;;;;5021585;28;20192;-75
2023/07/02 08:32:17;;;;;;;13.47;9.10;;;28.90;99.60;;;;;;5033525;28;20679;-75
2023/07/02 08:34:43;;;;;;;14.90;9.77;;;28.80;98.80;;;;;;5033909;28;20613;-75
2023/07/02 08:37:09;;;;;;;14.27;9.90;;;28.70;98.10;;;;;;5034554;28;20590;-76
2023/07/02 08:39:35;;;;;;;12.47;9.90;;;28.70;97.20;;;;;;5052181;28;20173;-75
2023/07/02 08:42:01;;;;;;;12.13;9.33;;;28.70;97.00;;;;;;5033167;28;20181;-75
2023/07/02 08:44:27;;;;;;;13.90;9.57;;;28.70;96.60;;;;;;5033970;28;20612;-75
2023/07/02 08:46:56;;;;;;;14.10;9.40;;;28.90;96.40;;;;;;5033825;28;20177;-75
2023/07/02 08:49:22;;;;;;;12.80;9.53;;;29.10;96.60;;;;;;5051746;28;20169;-75
2023/07/02 08:51:48;;;;;;;17.87;10.03;;;29.30;96.30;;;;;;5047563;28;20655;-75
2023/07/02 08:54:14;;;;;;;15.50;9.53;;;29.60;95.90;;;;;;5037916;28;20616;-75
2023/07/02 08:56:40;;;;;;;13.10;8.70;;;29.80;95.30;;;;;;5033620;28;20611;-75
2023/07/02 08:59:09;;;;;;;13.37;9.50;;;29.80;94.10;;;;;;5051920;28;20613;-75
2023/07/02 09:01:47;;;;;;;11.30;8.97;;;29.70;91.90;;;;;;5032697;28;20239;-76
2023/07/02 09:04:24;;;;;;;13.47;9.53;;;29.40;91.20;;;;;;5033545;28;20940;-75
2023/07/02 09:07:06;;;;;;;15.50;11.40;;;29.10;90.20;;;;;;5033993;28;20575;-76
2023/07/02 09:09:32;;;;;;;17.30;9.97;;;28.60;90.50;;;;;;5034031;28;20602;-76
2023/07/02 09:11:58;;;;;;;11.90;9.07;;;28.30;90.40;;;;;;5032433;28;20635;-75
2023/07/02 09:14:28;;;;;;;16.13;9.10;;;28.00;90.40;;;;;;5033805;28;20618;-75
2023/07/02 09:17:08;;;;;;;15.40;9.90;;;27.80;90.40;;;;;;5016869;28;21109;-75
2023/07/02 09:19:35;;;;;;;17.40;10.17;;;27.50;88.50;;;;;;5051527;28;20582;-75
2023/07/02 09:22:01;;;;;;;12.53;10.13;;;27.30;90.50;;;;;;5032652;28;20637;-74
2023/07/02 09:24:30;;;;;;;14.13;9.60;;;27.20;90.70;;;;;;5016770;28;20614;-74
2023/07/02 09:26:57;;;;;;;10.67;8.83;;;27.40;91.60;;;;;;5033270;28;20599;-74
2023/07/02 09:29:29;;;;;;;17.40;11.77;;;27.40;91.00;;;;;;5016471;28;20668;-75
2023/07/02 09:32:07;;;;;;;15.63;10.87;;;27.30;90.40;;;;;;5031847;28;20631;-75
2023/07/02 09:34:35;;;;;;;15.20;10.50;;;27.30;90.40;;;;;;5032929;28;20686;-74
2023/07/02 09:37:04;;;;;;;14.70;11.17;;;27.30;91.00;;;;;;5051001;28;20637;-74
2023/07/02 09:39:35;;;;;;;14.30;10.90;;;27.30;90.90;;;;;;5050379;28;20576;-74
2023/07/02 09:42:04;;;;;;;19.93;10.20;;;27.30;90.70;;;;;;5016391;28;20976;-75
2023/07/02 09:44:32;;;;;;;22.73;11.90;;;27.60;91.20;;;;;;5016463;28;20616;-75
2023/07/02 09:47:05;;;;;;;15.00;11.20;;;27.80;91.20;;;;;;5016418;28;20588;-74
2023/07/02 09:49:33;;;;;;;12.00;9.53;;;27.90;90.20;;;;;;5050458;28;20584;-74
2023/07/02 09:52:09;;;;;;;17.20;12.50;;;28.00;90.50;;;;;;5032115;28;20676;-74
2023/07/02 09:54:36;;;;;;;14.33;11.40;;;28.20;90.40;;;;;;5032363;28;20694;-74
2023/07/02 09:57:03;;;;;;;16.40;10.50;;;28.60;91.60;;;;;;5016597;28;20576;-75
2023/07/02 09:59:29;;;;;;;15.90;11.97;;;29.00;91.20;;;;;;5016851;28;20563;-75
2023/07/02 10:01:55;;;;;;;15.20;11.70;;;29.30;91.10;;;;;;5048988;28;20607;-75
2023/07/02 10:04:25;;;;;;;15.87;11.60;;;29.70;91.10;;;;;;5032594;28;20611;-75
2023/07/02 10:06:56;;;;;;;18.57;12.40;;;30.20;91.00;;;;;;5016555;28;20642;-75
2023/07/02 10:09:38;;;;;;;15.60;11.27;;;30.70;89.20;;;;;;5016099;28;20592;-75
2023/07/02 10:12:19;;;;;;;19.57;12.63;;;31.00;86.30;;;;;;5032074;28;20634;-75
2023/07/02 10:14:46;;;;;;;13.43;10.00;;;31.20;81.50;;;;;;5052140;28;20606;-75
2023/07/02 10:17:29;;;;;;;15.60;10.60;;;31.30;84.70;;;;;;5052315;28;20660;-75
2023/07/02 10:19:59;;;;;;;13.23;10.00;;;31.10;77.60;;;;;;5050957;28;20671;-76
2023/07/02 10:22:26;;;;;;;12.40;9.37;;;30.90;77.60;;;;;;5015479;28;20587;-75
2023/07/02 10:25:01;;;;;;;11.50;9.47;;;30.70;77.20;;;;;;5032732;28;20694;-76
2023/07/02 10:27:42;;;;;;;15.97;10.37;;;30.40;73.90;;;;;;5050774;28;20638;-75
2023/07/02 10:30:09;;;;;;;14.50;10.60;;;30.10;73.90;;;;;;5041399;28;20614;-75
2023/07/02 10:32:37;;;;;;;11.80;10.03;;;29.80;75.00;;;;;;5045132;28;20629;-75
2023/07/02 10:35:18;;;;;;;15.00;11.60;;;29.50;73.90;;;;;;5049357;28;20591;-75
2023/07/02 10:37:44;;;;;;;13.90;9.80;;;29.30;75.40;;;;;;5034242;28;20645;-75
2023/07/02 10:40:11;;;;;;;12.50;10.60;;;29.40;75.80;;;;;;5049341;28;20582;-76
2023/07/02 10:42:45;;;;;;;14.87;10.30;;;29.40;75.60;;;;;;5031781;28;20598;-75
2023/07/02 10:45:11;;;;;;;15.03;10.70;;;29.20;74.20;;;;;;5031902;28;20582;-75
2023/07/02 10:47:40;;;;;;;15.13;9.33;;;29.10;74.10;;;;;;5015499;28;20673;-75
2023/07/02 10:50:15;;;;;;;13.43;9.40;;;28.80;73.60;;;;;;5032356;28;20723;-75
2023/07/02 10:52:41;;;;;;;14.13;9.73;;;28.40;72.70;;;;;;5049137;28;20975;-75
2023/07/02 10:55:08;;;;;;;11.37;9.30;;;28.20;73.70;;;;;;5050217;28;20583;-75
2023/07/02 10:57:34;;;;;;;13.87;9.07;;;27.90;73.70;;;;;;5032551;28;20584;-75
2023/07/02 11:00:07;;;;;;;14.63;10.27;;;27.70;73.90;;;;;;5031971;28;20220;-75
2023/07/02 11:02:40;;;;;;;14.80;10.50;;;27.40;74.20;;;;;;5031335;28;20550;-75
2023/07/02 11:05:07;;;;;;;14.90;11.90;;;27.20;73.90;;;;;;5049590;28;20587;-75
2023/07/02 11:07:33;;;;;;;14.67;11.10;;;27.10;74.80;;;;;;5015531;28;20812;-75
2023/07/02 11:09:59;;;;;;;12.60;10.10;;;27.00;75.30;;;;;;5049517;28;21142;-75
2023/07/02 11:12:31;;;;;;;16.33;10.90;;;26.90;75.40;;;;;;5049763;28;20614;-75
2023/07/02 11:15:13;;;;;;;15.33;9.90;;;26.80;74.60;;;;;;5019293;28;20264;-75
2023/07/02 11:17:40;;;;;;;15.60;10.60;;;26.70;74.10;;;;;;5036631;28;20675;-75
2023/07/02 11:20:08;;;;;;;14.50;9.60;;;26.60;75.30;;;;;;5054080;28;20563;-75
2023/07/02 11:22:36;;;;;;;14.43;10.60;;;26.60;75.80;;;;;;5034926;28;20615;-75
2023/07/02 11:25:12;;;;;;;12.00;9.47;;;26.70;77.50;;;;;;5053492;28;20671;-75
2023/07/02 11:27:38;;;;;;;19.03;10.47;;;26.90;77.40;;;;;;5035508;28;20641;-75
2023/07/02 11:30:05;;;;;;;13.40;10.53;;;27.10;78.60;;;;;;5035552;28;20968;-75
2023/07/02 11:32:30;;;;;;;13.13;9.77;;;27.30;78.00;;;;;;5018790;28;20998;-75
2023/07/02 11:34:56;;;;;;;16.40;10.37;;;27.50;77.50;;;;;;5035647;28;20594;-75
2023/07/02 11:37:22;;;;;;;13.03;10.17;;;27.60;76.70;;;;;;5036060;28;20626;-75
2023/07/02 11:39:48;;;;;;;15.13;10.20;;;27.80;77.40;;;;;;5018937;28;20177;-76
2023/07/02 11:42:14;;;;;;;14.63;10.53;;;28.10;78.20;;;;;;5018518;28;21034;-75
2023/07/02 11:44:40;;;;;;;16.07;11.03;;;28.30;78.30;;;;;;5035564;28;20658;-75
2023/07/02 11:47:06;;;;;;;13.90;10.20;;;28.40;76.40;;;;;;5035329;28;20587;-75
2023/07/02 11:49:32;;;;;;;15.70;10.53;;;28.40;75.50;;;;;;5035706;28;20575;-75
2023/07/02 11:51:58;;;;;;;14.90;10.70;;;28.30;74.60;;;;;;5034573;28;20224;-75
2023/07/02 11:54:23;;;;;;;12.17;9.77;;;28.30;75.50;;;;;;5035473;28;20188;-75
2023/07/02 11:56:49;;;;;;;15.20;10.57;;;28.40;74.70;;;;;;5034901;28;20223;-75
2023/07/02 11:59:15;;;;;;;12.20;8.93;;;28.60;75.40;;;;;;5035202;28;20176;-75
2023/07/02 12:01:41;;;;;;;13.57;8.70;;;28.70;74.10;;;;;;5052023;28;20188;-75
2023/07/02 12:04:07;;;;;;;11.13;9.03;;;28.60;72.50;;;;;;5035116;28;20649;-75
2023/07/02 12:06:33;;;;;;;13.00;9.20;;;28.50;71.00;;;;;;5035220;28;20181;-75
2023/07/02 12:08:59;;;;;;;14.10;9.70;;;28.40;70.60;;;;;;5035956;28;20589;-75
2023/07/02 12:11:25;;;;;;;12.03;8.33;;;28.40;71.00;;;;;;5034911;28;20669;-75
2023/07/02 12:13:50;;;;;;;12.23;8.50;;;28.40;71.30;;;;;;5035543;28;20227;-76
2023/07/02 12:16:16;;;;;;;12.43;8.30;;;28.30;70.50;;;;;;5019383;28;20178;-75
2023/07/02 12:18:42;;;;;;;12.23;8.93;;;28.40;70.70;;;;;;5035018;28;20537;-75
2023/07/02 12:21:07;;;;;;;11.43;8.00;;;28.40;67.40;;;;;;5051978;28;20177;-75
2023/07/02 12:23:33;;;;;;;9.27;7.33;;;28.30;66.40;;;;;;5034920;28;20663;-76
2023/07/02 12:25:59;;;;;;;10.97;7.10;;;28.20;66.80;;;;;;5034846;28;20174;-75
2023/07/02 12:28:24;;;;;;;10.97;7.17;;;28.10;65.00;;;;;;5049313;28;20161;-77
2023/07/02 12:30:50;;;;;;;10.60;8.30;;;28.00;64.20;;;;;;5026149;28;20568;-76
2023/07/02 12:33:16;;;;;;;8.87;6.90;;;27.90;63.50;;;;;;5017533;28;20200;-76